Clifton, Tennessee
Current Conditions -  °F | °C
As of 2:35 AM on Monday 26 Jan 2015 (Local Time) from KSNH Reporting Station
Overcast Overcast  
Wind Chill: 31°   Ceiling: 1300
Heat Index: 37°   Visibility: 10mi
Dew Point: 36°   Wind: 9mph
Humidity: 93%   Direction: 320°NW
Pressure: 29.91"   Gusts: NA
Location:  35.39°N, 88°W
Report Text: KSNH 260835Z AUTO 32008KT 10SM OVC013 03/02 A2991 RMK
Loading
Personal Weather Stations






























Interactive Weather Map New forecast layout! Learn more

10-Day Weather Forecast

Advertisements
Track Severe Weather on mobile